メインページ
METAR-TAF:

METAR-TAF

空港 :

フォール=ド=フランス, マルティニーク

マルティニーク・エメ・セゼール国際空港

緯度: 14-36N, 経度: 061-00W, 海抜: 5m

現時点の気象観測

当レポートは37分前の21:30(UTC)に作成
の風 14kt
気温 25°C
湿度 74%
気圧 1016 hPa
視程10km以上

METAR: TFFF 192130Z AUTO 08014KT 9999 SCT027/// SCT048/// BKN066/// ///TCU 25/20 Q1016 TEMPO 09020G35KT 4000 SHRA

時間: 18:07 (22:07 UTC)

予報

当レポートは6時間7分前の16:00(UTC)に作成
予報は19日の 18時(UTC)から 20日の 18時(UTC)まで有効
の風 15kt
視程10km以上
高度3000ftの雲は散在している
高度5000ftの雲は散在している
19日の 18時(UTC)から 20日の 18時(UTC)まで一時的に
視程: 4000m
高度1800ftの雲は散在している, 塔状積雲.
にわか雨
19日の 18時(UTC)から 19日の 24時(UTC)まで一時的に
の風 20kt、最大35ktの突風を伴う
20日の 12時(UTC)から 20日の 18時(UTC)まで一時的に
の風 15kt、最大25ktの突風を伴う

TAF: TFFF 191600Z 1918/2018 09015KT 9999 SCT030 SCT050 TEMPO 1918/2018 4000 SHRA SCT018TCU TEMPO 1918/1924 09020G35KT TEMPO 2012/2018 09015G25KT

4,000以上の空港の気象観測と天気予報(METAR報とTAF報)

利用可能な観測所は地図上に黄色い丸と赤い丸で示す。

丸の上にカーソルを重ねると観測所名を参照できる。

次にクリックすると気象観測と天気予報を参照できる。

マップの切り替え:黒色「×」印の緑ボタンをクリックして拡大、「-」印の緑ボタンをクリックして縮小、緑色の三角印をクリックして隣りの地図に切り替え


METAR-TAF: